createdAt,value
2023-03-23T15:58:54.609Z,15.21
2023-03-23T16:01:26.146Z,15.17
2023-03-23T16:03:58.448Z,15.07
2023-03-23T16:06:28.967Z,15.00
2023-03-23T16:08:57.759Z,14.94
2023-03-23T16:11:27.920Z,14.91
2023-03-23T16:13:55.886Z,14.88
2023-03-23T16:16:27.541Z,14.84
2023-03-23T16:18:57.272Z,14.77
2023-03-23T16:21:26.080Z,14.75
2023-03-23T16:23:54.321Z,14.72
2023-03-23T16:26:22.298Z,14.68
2023-03-23T16:28:50.593Z,14.66
2023-03-23T16:31:23.199Z,14.68
2023-03-23T16:33:51.061Z,14.66
2023-03-23T16:36:18.823Z,14.63
2023-03-23T16:38:48.943Z,14.60
2023-03-23T16:41:17.788Z,14.59
2023-03-23T16:43:46.176Z,14.55
2023-03-23T16:46:14.400Z,14.59
2023-03-23T16:48:42.186Z,14.62
2023-03-23T16:51:12.175Z,14.63
2023-03-23T16:53:40.064Z,14.64
2023-03-23T16:56:07.703Z,14.61
2023-03-23T16:58:35.759Z,14.60
2023-03-23T17:01:03.504Z,14.59
2023-03-23T17:03:38.167Z,14.59
2023-03-23T17:06:06.042Z,14.57
2023-03-23T17:08:33.854Z,14.52
2023-03-23T17:11:07.340Z,14.50
2023-03-23T17:13:35.244Z,14.47
2023-03-23T17:16:03.061Z,14.44
2023-03-23T17:18:31.998Z,14.43
2023-03-23T17:20:59.570Z,14.40
2023-03-23T17:23:27.137Z,14.35
2023-03-23T17:25:55.664Z,14.29
2023-03-23T17:28:23.304Z,14.26
2023-03-23T17:30:58.562Z,14.15
2023-03-23T17:33:27.300Z,14.00
2023-03-23T17:35:55.272Z,13.93
2023-03-23T17:38:24.483Z,13.88
2023-03-23T17:41:04.230Z,13.79
2023-03-23T17:43:33.752Z,13.75
2023-03-23T17:46:01.923Z,13.69
2023-03-23T17:48:29.699Z,13.63
2023-03-23T17:51:01.054Z,13.59
2023-03-23T17:53:30.941Z,13.50
2023-03-23T17:56:06.912Z,13.44
2023-03-23T19:31:10.917Z,11.84
